Friday, April 18, 2014
13:16 UTC
  |  Log In   |  Register Free
Airport Search:

Hillsboro Municipal Airport
(KINJ)

Hillsboro Municipal Airport Diagram
No Airport Diagram Available

FAA data valid effective April 3, 2014 until May 29, 2014 (unless otherwise noted).

 
 
 
 
 
 
 
 
 
 
 
 
 
 

Current Aviation Weather for Hillsboro Municipal Airport (KINJ)

The most recent METAR observation for KINJ was updated at: 1255 UTC
METAR Summary (Translated METAR)
KINJ
181255Z AUTO 06009KT 10SM SCT060 BKN070 14/10 A3021 RMK AO2 T01400096
KCPT
(23.6 nm NW from KINJ)
181255Z AUTO 03005KT 2 1/2SM BR CLR 12/12 A3024 RMK AO2
TAF
No TAF information found within 50 nm of KINJ
  Airport Weather Conditions for KINJ

 Current Weather at INJ
57° F
Mostly Cloudy
Northeast winds at 10.4 mph
INJ NOAA Radar

Pressure: 30.21 in
Humidity: 75%
Wind: Northeast at 10.4 MPH (9 KT)
Dew Point: 49.3°F
Visibility: 10.00 mi


Airport Weather Forecast for KINJ

Translated METAR and TAF for KINJ
Translated METAR for KINJ (1316 UTC 18 April 2014)
found at http://aviationweather.gov/adds/metars/
 
METAR text: KINJ 181255Z AUTO 06009KT 10SM SCT060 BKN070 14/10 A3021 RMK AO2 T01400096
Conditions at: KINJ (HILLSBORO , TX, US) observed 1255 UTC 18 April 2014
Temperature: 14.0°C (57°F)
Dewpoint: 9.6°C (49°F) [RH = 75%]
Pressure (altimeter): 30.21 inches Hg (1023.1 mb)
Winds: from the ENE (60 degrees) at 10 MPH (9 knots; 4.7 m/s)
Visibility: 10 or more miles (16+ km)
Ceiling: 7000 feet AGL
Clouds: scattered clouds at 6000 feet AGL
broken clouds at 7000 feet AGL
Weather: automated observation with no human augmentation;
there may or may not be significant weather present at this time
Translated TAF for KINJ

There is no translated TAF available for this airport

Find All Airport Services Find A Hotel Find A Rental Car Find A Golf Course Find A Restaurant $100 Hamburger



FBO's on the Field
FBO Company Facility Photos Services Transportation Aviation Fuel Prices: Prices include tax
Catering Weather Repair Courtesy Rental Type 100LL JetA JetA+ MOGAS 8087
 
Add another FBO Facility Photos Catering Weather Repair Courtesy Rental Type 100LL JetA JetA+ MOGAS 8087
Services Transportation Aviation Fuel Prices: Prices include tax
There are no FBO's currently reporting fuel at INJ. List your FBO now


GlobalAir.com Airport Resource Center model-print
model-print
model-print
model-print